Thunder radar more information blitzortung!


Radar de pluja more information rain snow radar


Visita la nostra xarxa de llocs de meteo:

Template documentation
and downloads

And another site



No particular awareness of the weather is required.    There are no Weather-warnings

Pagina Historial Weather Underground text

Diari Resum May 5, 2017 Unitats:  Mètric    Imperial   Tant
« Previous Dia
SegĂźent Dia »
Diari Setmana Mensual Anual Personalitzada
  Maxima: Minima: Media:
Temperatura: -17.8 °C -11.2 °C -8.2 °C
Punt de rosada: -17.8 °C -14 °C -12.6 °C
Humitat: Humidity % 44 % 60 %
Wind Speed: 0 km/h 0 km/h 15.4 km/h
RĂ fegues de vent: 0 km/h - -
Vent:- - East
Pression baro: 0 hPa 34164.7 hPa -
Precipitacions: 0 mm    
Historical Graphs
 
 
Dades de taula per May 5, 2017
Temps Temperatura Punt de rosada Pression baro Vent Wind Speed RĂ fegues de vent Humitat Rainfall Rate (Hourly)
-17.8 °C -17.8 °C 0 hPa Calm     Humidity % 0 mm
00:01 -9.8 °C -11.7 °C 34395 hPa NNE 6 km/h 6 km/h 80 % 0 mm
00:05 -10.8 °C -12.3 °C 34327.3 hPa NE 5.1 km/h 5.1 km/h 83 % 0 mm
00:06 -9.8 °C -11.6 °C 34395 hPa NE 6 km/h 6 km/h 81 % 0 mm
00:11 -9.8 °C -11.7 °C 34395 hPa NNE 6 km/h 6 km/h 80 % 0 mm
00:15 -10.8 °C -12.3 °C 34327.3 hPa NE 5.1 km/h 7.7 km/h 83 % 0 mm
00:25 -10.8 °C -12.3 °C 34327.3 hPa ENE 7.7 km/h 7.7 km/h 83 % 0 mm
00:35 -10.8 °C -12.3 °C 34327.3 hPa ENE 5.1 km/h 7.7 km/h 83 % 0 mm
00:45 -10.8 °C -12.4 °C 34327.3 hPa ENE 2.6 km/h 7.7 km/h 83 % 0 mm
00:55 -10.9 °C -12.4 °C 34327.3 hPa NE 5.1 km/h 7.7 km/h 83 % 0 mm
01:05 -10.9 °C -12.4 °C 34293.4 hPa NE 5.1 km/h 7.7 km/h 83 % 0 mm
01:15 -11 °C -12.4 °C 34293.4 hPa NE 5.1 km/h 7.7 km/h 84 % 0 mm
01:25 -11.1 °C -12.5 °C 34327.3 hPa NNE 5.1 km/h 7.7 km/h 84 % 0 mm
01:35 -11.1 °C -12.6 °C 34327.3 hPa NNE 7.7 km/h 10.3 km/h 84 % 0 mm
01:45 -11.1 °C -12.6 °C 34327.3 hPa NE 7.7 km/h 10.3 km/h 84 % 0 mm
01:55 -11.1 °C -12.6 °C 34327.3 hPa NE 5.1 km/h 7.7 km/h 84 % 0 mm
02:05 -11.2 °C -12.6 °C 34361.1 hPa NE 2.6 km/h 7.7 km/h 84 % 0 mm
02:15 -11.1 °C -12.5 °C 34361.1 hPa NE 5.1 km/h 5.1 km/h 84 % 0 mm
02:25 -11.1 °C -12.5 °C 34361.1 hPa NE 5.1 km/h 7.7 km/h 84 % 0 mm
02:35 -11 °C -12.4 °C 34361.1 hPa NE 7.7 km/h 12.9 km/h 84 % 0 mm
02:45 -11 °C -12.4 °C 34361.1 hPa NE 5.1 km/h 7.7 km/h 84 % 0 mm
02:55 -10.9 °C -12.4 °C 34361.1 hPa Calm   7.7 km/h 84 % 0 mm
03:05 -10.9 °C -12.4 °C 34361.1 hPa NE 5.1 km/h 7.7 km/h 84 % 0 mm
03:15 -10.9 °C -12.3 °C 34361.1 hPa NNE 7.7 km/h 10.3 km/h 84 % 0 mm
03:25 -10.8 °C -12.3 °C 34361.1 hPa NNE 12.9 km/h 15.6 km/h 84 % 0 mm
03:35 -10.6 °C -12.1 °C 34361.1 hPa NE 7.7 km/h 20.8 km/h 84 % 0 mm
03:45 -10.4 °C -11.8 °C 34361.1 hPa ENE 7.7 km/h 15.6 km/h 84 % 0 mm
03:55 -10.3 °C -11.8 °C 34361.1 hPa NE 12.9 km/h 12.9 km/h 83 % 0 mm
04:05 -10.2 °C -11.9 °C 34327.3 hPa ENE 12.9 km/h 18.2 km/h 82 % 0 mm
04:15 -10.1 °C -11.8 °C 34327.3 hPa East 7.7 km/h 10.3 km/h 82 % 0 mm
04:25 -10.1 °C -11.7 °C 34361.1 hPa East 12.9 km/h 18.2 km/h 82 % 0 mm
04:35 -10 °C -11.8 °C 34327.3 hPa ENE 5.1 km/h 12.9 km/h 81 % 0 mm
04:45 -9.9 °C -11.7 °C 34327.3 hPa ENE 12.9 km/h 18.2 km/h 81 % 0 mm
04:55 -9.7 °C -11.6 °C 34361.1 hPa ENE 12.9 km/h 15.6 km/h 80 % 0 mm
05:05 -9.6 °C -11.6 °C 34327.3 hPa NE 12.9 km/h 20.8 km/h 79 % 0 mm
05:15 -9.3 °C -11.3 °C 34327.3 hPa NE 12.9 km/h 15.6 km/h 79 % 0 mm
05:25 -9.1 °C -11.2 °C 34361.1 hPa ENE 12.9 km/h 15.6 km/h 78 % 0 mm
05:35 -8.9 °C -11.2 °C 34361.1 hPa ENE 12.9 km/h 20.8 km/h 76 % 0 mm
10:42 -8.9 °C -11.3 °C 34361.1 hPa NNE 11.9 km/h 11.9 km/h 75 % 0 mm
10:47 -8.8 °C -11.3 °C 34361.1 hPa East 11.9 km/h 11.9 km/h 75 % 0 mm
10:52 -8.8 °C -11.3 °C 34361.1 hPa ESE 15 km/h 15 km/h 74 % 0 mm
10:57 -8.7 °C -11.3 °C 34361.1 hPa ENE 11.9 km/h 11.9 km/h 74 % 0 mm
11:02 -8.6 °C -11.3 °C 34361.1 hPa ESE 15.3 km/h 15.3 km/h 73 % 0 mm
11:07 -8.3 °C -11.4 °C 34361.1 hPa ENE 9 km/h 9 km/h 69 % 0 mm
11:12 -8.4 °C -11.7 °C 34361.1 hPa SE 15 km/h 15 km/h 68 % 0 mm
11:17 -8.2 °C -11.5 °C 34361.1 hPa SW 6 km/h 6 km/h 68 % 0 mm
11:22 -7.9 °C -10.9 °C 34361.1 hPa West 6.3 km/h 6.3 km/h 70 % 0 mm
11:27 -7.7 °C -10.9 °C 34395 hPa West 9 km/h 9 km/h 69 % 0 mm
11:32 -7.6 °C -10.8 °C 34395 hPa WSW 6 km/h 6 km/h 69 % 0 mm
11:37 -7.5 °C -10.7 °C 34395 hPa NNW 6 km/h 6 km/h 69 % 0 mm
11:42 -7.2 °C -10.8 °C 34395 hPa ESE 3.7 km/h 3.7 km/h 66 % 0 mm
11:47 -6.9 °C -10.5 °C 34395 hPa SW 6 km/h 6 km/h 66 % 0 mm
11:52 -6.8 °C -10.3 °C 34395 hPa WSW 8.5 km/h 8.5 km/h 67 % 0 mm
11:57 -6.7 °C -10.5 °C 34395 hPa SSW 6 km/h 6 km/h 65 % 0 mm
12:02 -6.7 °C -10.6 °C 34395 hPa SW 6 km/h 6 km/h 64 % 0 mm
12:07 -6.9 °C -10.9 °C 34395 hPa ENE 5.1 km/h 5.1 km/h 63 % 0 mm
12:12 -7.2 °C -11.3 °C 34361.1 hPa ESE 9 km/h 9 km/h 62 % 0 mm
12:17 -7 °C -11.2 °C 34361.1 hPa East 3.1 km/h   62 % 0 mm
12:22 -7.1 °C -11.3 °C 34361.1 hPa NNE 9 km/h 9 km/h 62 % 0 mm
12:27 -7.2 °C -11.5 °C 34361.1 hPa ESE 9 km/h 9 km/h 61 % 0 mm
12:32 -7.2 °C -11.3 °C 34361.1 hPa East 6.3 km/h 6.3 km/h 62 % 0 mm
12:37 -7.4 °C -11.5 °C 34361.1 hPa ESE 6.3 km/h 6.3 km/h 62 % 0 mm
12:42 -7.3 °C -11.3 °C 34361.1 hPa East 7.6 km/h 7.6 km/h 63 % 0 mm
12:47 -7.3 °C -11.3 °C 34361.1 hPa NNE 10.3 km/h 10.3 km/h 63 % 0 mm
12:52 -7.2 °C -11.3 °C 34361.1 hPa ENE 11.9 km/h 11.9 km/h 62 % 0 mm
12:57 -7.2 °C -11.3 °C 34361.1 hPa East 22 km/h 22 km/h 62 % 0 mm
13:02 -7.2 °C -11.3 °C 34361.1 hPa ENE 15 km/h 15 km/h 62 % 0 mm
13:07 -7.1 °C -11.4 °C 34361.1 hPa ENE 15 km/h 15 km/h 61 % 0 mm
13:13 -6.9 °C -11.2 °C 34293.4 hPa East 20.9 km/h 20.9 km/h 61 % 0 mm
13:18 -6.8 °C -11.2 °C 34293.4 hPa ENE 23.8 km/h 23.8 km/h 60 % 0 mm
13:23 -6.7 °C -11.6 °C 34293.4 hPa NNE 23.8 km/h 23.8 km/h 57 % 0 mm
13:28 -6.8 °C -11.6 °C 34293.4 hPa ESE 26.9 km/h 26.9 km/h 58 % 0 mm
13:33 -6.7 °C -11.8 °C 34293.4 hPa East 20.9 km/h 20.9 km/h 56 % 0 mm
13:38 -6.8 °C -12.4 °C 34293.4 hPa ESE 35.7 km/h 35.7 km/h 52 % 0 mm
13:43 -6.7 °C -12.2 °C 34293.4 hPa ESE 20.9 km/h 20.9 km/h 53 % 0 mm
13:48 -6.5 °C -12.2 °C 34293.4 hPa SE 26.9 km/h 26.9 km/h 52 % 0 mm
13:53 -6.4 °C -12.4 °C 34293.4 hPa ESE 26.9 km/h 26.9 km/h 50 % 0 mm
13:58 -6.4 °C -12.4 °C 34293.4 hPa SE 29.8 km/h 29.8 km/h 50 % 0 mm
14:03 -6.2 °C -12 °C 34293.4 hPa East 20.9 km/h 20.9 km/h 51 % 0 mm
14:08 -6.1 °C -12.1 °C 34293.4 hPa NNE 15 km/h 15 km/h 50 % 0 mm
14:13 -5.9 °C -11.9 °C 34222.3 hPa ENE 17.9 km/h 17.9 km/h 50 % 0 mm
14:18 -5.8 °C -11.9 °C 34222.3 hPa East 15 km/h 15 km/h 50 % 0 mm
14:23 -5.6 °C -11.7 °C 34222.3 hPa ENE 23.8 km/h 23.8 km/h 50 % 0 mm
14:28 -5.7 °C -11.7 °C 34293.4 hPa ESE 17.9 km/h 17.9 km/h 50 % 0 mm
14:33 -5.8 °C -12.1 °C 34293.4 hPa SE 29.8 km/h 29.8 km/h 49 % 0 mm
14:38 -5.6 °C -11.8 °C 34293.4 hPa ESE 26.4 km/h 26.4 km/h 49 % 0 mm
14:43 -5.7 °C -11.9 °C 34256.2 hPa ESE 17.9 km/h 17.9 km/h 49 % 0 mm
14:48 -5.7 °C -12.1 °C 34256.2 hPa ESE 20.9 km/h 20.9 km/h 48 % 0 mm
14:53 -5.8 °C -12.2 °C 34256.2 hPa ENE 20.9 km/h 20.9 km/h 48 % 0 mm
14:58 -5.7 °C -12.3 °C 34256.2 hPa ENE 32.8 km/h 32.8 km/h 47 % 0 mm
15:03 -5.9 °C -12.7 °C 34256.2 hPa ESE 38.8 km/h 38.8 km/h 46 % 0 mm
15:08 -6.1 °C -12.6 °C 34256.2 hPa East 26.9 km/h 26.9 km/h 47 % 0 mm
15:13 -6.2 °C -12.9 °C 34256.2 hPa ESE 35.7 km/h 35.7 km/h 46 % 0 mm
15:18 -6.2 °C -12.9 °C 34256.2 hPa ENE 44.7 km/h 44.7 km/h 46 % 0 mm
15:23 -5.9 °C -12.7 °C 34256.2 hPa East 15 km/h 15 km/h 46 % 0 mm
15:28 -6.1 °C -13.2 °C 34256.2 hPa NNE 20.9 km/h 20.9 km/h 44 % 0 mm
15:33 -6.1 °C -12.9 °C 34256.2 hPa ENE 25.1 km/h 25.1 km/h 45 % 0 mm
15:38 -6 °C -12.7 °C 34256.2 hPa East 26.9 km/h 26.9 km/h 46 % 0 mm
15:43 -6.1 °C -12.8 °C 34256.2 hPa ESE 34.9 km/h 34.9 km/h 46 % 0 mm
15:48 -6.2 °C -12.6 °C 34256.2 hPa SE 29.8 km/h 29.8 km/h 48 % 0 mm
15:53 -6.4 °C -12.6 °C 34256.2 hPa ESE 29.8 km/h 29.8 km/h 49 % 0 mm
15:58 -6.4 °C -12.6 °C 34256.2 hPa ESE 32.8 km/h 32.8 km/h 49 % 0 mm
16:03 -6.6 °C -12.7 °C 34256.2 hPa SSE 32.8 km/h 32.8 km/h 49 % 0 mm
16:08 -6.7 °C -12.6 °C 34256.2 hPa ESE 20.9 km/h 20.9 km/h 50 % 0 mm
16:13 -6.6 °C -12.6 °C 34256.2 hPa ESE 35.7 km/h 35.7 km/h 50 % 0 mm
16:18 -6.7 °C -12.6 °C 34256.2 hPa ENE 32.8 km/h 32.8 km/h 51 % 0 mm
16:23 -6.7 °C -12.3 °C 34256.2 hPa East 29.8 km/h 29.8 km/h 52 % 0 mm
16:28 -6.7 °C -12.3 °C 34256.2 hPa ENE 26.9 km/h 26.9 km/h 52 % 0 mm
16:33 -6.7 °C -12.3 °C 34256.2 hPa ESE 23.8 km/h 23.8 km/h 52 % 0 mm
16:38 -6.7 °C -12.2 °C 34256.2 hPa ESE 26.9 km/h 26.9 km/h 53 % 0 mm
16:43 -6.7 °C -12.2 °C 34222.3 hPa ENE 20.9 km/h 20.9 km/h 53 % 0 mm
16:48 -6.7 °C -12.2 °C 34222.3 hPa ESE 29.8 km/h 29.8 km/h 53 % 0 mm
16:53 -6.6 °C -12.1 °C 34222.3 hPa ESE 17.9 km/h 17.9 km/h 53 % 0 mm
16:58 -6.6 °C -12.1 °C 34256.2 hPa ESE 32.8 km/h 32.8 km/h 53 % 0 mm
17:03 -6.6 °C -11.9 °C 34256.2 hPa ESE 20.9 km/h 20.9 km/h 54 % 0 mm
17:08 -6.6 °C -12.1 °C 34256.2 hPa ENE 32.8 km/h 32.8 km/h 53 % 0 mm
17:13 -6.7 °C -12.2 °C 34256.2 hPa East 29.8 km/h 29.8 km/h 53 % 0 mm
17:18 -6.7 °C -12.2 °C 34256.2 hPa NE 26.9 km/h 26.9 km/h 53 % 0 mm
17:23 -6.6 °C -12.1 °C 34256.2 hPa ESE 15 km/h 15 km/h 53 % 0 mm
17:28 -6.7 °C -12.2 °C 34256.2 hPa ESE 17.9 km/h 17.9 km/h 53 % 0 mm
17:33 -6.8 °C -12.3 °C 34256.2 hPa East 23.8 km/h 23.8 km/h 53 % 0 mm
17:38 -6.6 °C -12.1 °C 34256.2 hPa ENE 29.8 km/h 29.8 km/h 53 % 0 mm
17:43 -6.9 °C -12.3 °C 34222.3 hPa East 23.8 km/h 23.8 km/h 53 % 0 mm
17:48 -6.8 °C -12.4 °C 34222.3 hPa NNW 20.9 km/h 20.9 km/h 52 % 0 mm
17:53 -6.9 °C -12.6 °C 34222.3 hPa ENE 26.9 km/h 26.9 km/h 52 % 0 mm
17:58 -6.9 °C -12.6 °C 34256.2 hPa ENE 23.8 km/h 23.8 km/h 52 % 0 mm
18:03 -7 °C -12.6 °C 34256.2 hPa NNE 20.9 km/h 20.9 km/h 52 % 0 mm
18:08 -7 °C -12.6 °C 34256.2 hPa ENE 17.9 km/h 17.9 km/h 52 % 0 mm
18:13 -7.1 °C -12.8 °C 34256.2 hPa East 35.7 km/h 35.7 km/h 51 % 0 mm
18:18 -7.1 °C -12.8 °C 34256.2 hPa ESE 20.9 km/h 20.9 km/h 51 % 0 mm
18:23 -7.2 °C -12.9 °C 34256.2 hPa ENE 23.8 km/h 23.8 km/h 51 % 0 mm
18:28 -7.2 °C -13 °C 34293.4 hPa NE 23.8 km/h 23.8 km/h 51 % 0 mm
18:33 -7.3 °C -12.9 °C 34293.4 hPa East 28.2 km/h 28.2 km/h 52 % 0 mm
18:38 -7.4 °C -12.8 °C 34293.4 hPa ENE 26.9 km/h 26.9 km/h 53 % 0 mm
18:44 -7.4 °C -12.7 °C 34256.2 hPa ENE 17.9 km/h 17.9 km/h 54 % 0 mm
18:49 -7.4 °C -12.7 °C 34256.2 hPa ESE 15 km/h 15 km/h 54 % 0 mm
18:54 -7.5 °C -12.6 °C 34256.2 hPa ENE 32.8 km/h 32.8 km/h 55 % 0 mm
18:59 -7.6 °C -12.7 °C 34222.3 hPa North 15.6 km/h 15.6 km/h 55 % 0 mm
19:04 -7.5 °C -12.4 °C 34222.3 hPa ESE 17.9 km/h 19.2 km/h 56 % 0 mm
19:09 -7.6 °C -12.6 °C 34222.3 hPa NE 17.9 km/h 17.9 km/h 56 % 0 mm
19:14 -7.6 °C -12.6 °C 34222.3 hPa East 32.8 km/h 32.8 km/h 56 % 0 mm
19:15 -8.9 °C -13.9 °C 34222.3 hPa NE 7.7 km/h 7.7 km/h 55 % 0 mm
19:19 -7.6 °C -12.7 °C 34222.3 hPa ENE 26.9 km/h 26.9 km/h 55 % 0 mm
19:24 -7.6 °C -12.9 °C 34222.3 hPa ENE 26.9 km/h 26.9 km/h 54 % 0 mm
19:29 -7.6 °C -12.8 °C 34222.3 hPa ESE 15.3 km/h 15.3 km/h 54 % 0 mm
19:34 -7.6 °C -12.9 °C 34222.3 hPa ESE 26.9 km/h 26.9 km/h 54 % 0 mm
19:40 -7.6 °C -12.9 °C 34222.3 hPa East 15.6 km/h 25.9 km/h 54 % 0 mm
19:45 -7.7 °C -12.9 °C 34222.3 hPa ENE 26.9 km/h 26.9 km/h 54 % 0 mm
19:50 -7.7 °C -12.9 °C 34222.3 hPa ENE 12.9 km/h 18.2 km/h 54 % 0 mm
19:55 -7.8 °C -13.1 °C 34222.3 hPa East 19.6 km/h 19.6 km/h 54 % 0 mm
20:00 -7.8 °C -13.2 °C 34198.6 hPa ESE 26.9 km/h 26.9 km/h 53 % 0 mm
20:05 -7.9 °C -13.3 °C 34198.6 hPa ENE 23.8 km/h 23.8 km/h 53 % 0 mm
20:10 -7.9 °C -13.3 °C 34198.6 hPa East 20.9 km/h 20.9 km/h 53 % 0 mm
20:15 -8 °C -13.4 °C 34198.6 hPa ENE 15.6 km/h 25.9 km/h 53 % 0 mm
20:20 -8 °C -13.4 °C 34198.6 hPa NE 17.9 km/h 17.9 km/h 53 % 0 mm
20:25 -8 °C -13.4 °C 34198.6 hPa East 20.9 km/h 20.9 km/h 53 % 0 mm
20:30 -8.1 °C -13.4 °C 34198.6 hPa ESE 9 km/h 9 km/h 53 % 0 mm
20:35 -8.1 °C -13.5 °C 34198.6 hPa ESE 15 km/h 15 km/h 53 % 0 mm
20:40 -8.1 °C -13.5 °C 34198.6 hPa ENE 12.2 km/h 12.2 km/h 53 % 0 mm
20:45 -8.1 °C -13.7 °C 34198.6 hPa ESE 17.9 km/h 17.9 km/h 52 % 0 mm
20:50 -8.2 °C -13.7 °C 34198.6 hPa East 19.2 km/h 19.2 km/h 52 % 0 mm
20:55 -8.2 °C -13.7 °C 34198.6 hPa East 17.9 km/h 17.9 km/h 52 % 0 mm
21:00 -8.2 °C -13.7 °C 34222.3 hPa East 15 km/h 15 km/h 52 % 0 mm
21:05 -8.3 °C -13.8 °C 34222.3 hPa ENE 11.9 km/h 11.9 km/h 52 % 0 mm
21:10 -8.3 °C -13.8 °C 34222.3 hPa ENE 16.1 km/h 16.1 km/h 52 % 0 mm
21:15 -8.3 °C -13.8 °C 34198.6 hPa NNE 15 km/h 15 km/h 52 % 0 mm
21:21 -8.3 °C -13.9 °C 34198.6 hPa NNE 11.9 km/h 11.9 km/h 51 % 0 mm
21:25 -9.5 °C -13.7 °C 34198.6 hPa Calm   7.7 km/h 61 % 0 mm
21:26 -8.3 °C -13.9 °C 34198.6 hPa ENE 11.9 km/h 11.9 km/h 51 % 0 mm
21:31 -8.3 °C -14 °C 34222.3 hPa NE 11.9 km/h 11.9 km/h 51 % 0 mm
21:35 -9.6 °C -13.7 °C 34198.6 hPa Calm     61 % 0 mm
21:36 -8.4 °C -13.9 °C 34222.3 hPa NNE 16.1 km/h 16.1 km/h 52 % 0 mm
21:41 -8.4 °C -13.9 °C 34256.2 hPa NNE 15 km/h 15 km/h 52 % 0 mm
21:45 -9.6 °C -13.7 °C 34198.6 hPa SW 2.6 km/h 5.1 km/h 61 % 0 mm
21:46 -8.4 °C -13.8 °C 34256.2 hPa NE 15 km/h 15 km/h 53 % 0 mm
21:52 -8.5 °C -13.8 °C 34256.2 hPa NNE 15 km/h 15 km/h 53 % 0 mm
21:55 -9.6 °C -13.6 °C 34198.6 hPa Calm   2.6 km/h 62 % 0 mm
21:57 -8.6 °C -13.9 °C 34256.2 hPa NE 15 km/h 15 km/h 53 % 0 mm
22:02 -8.6 °C -13.9 °C 34256.2 hPa NNE 9 km/h 9 km/h 53 % 0 mm
22:05 -9.7 °C -13.7 °C 34198.6 hPa Calm   5.1 km/h 62 % 0 mm
22:07 -8.6 °C -13.8 °C 34256.2 hPa NNE 15 km/h 15 km/h 54 % 0 mm
22:12 -8.6 °C -13.8 °C 34256.2 hPa NNW 15 km/h 15 km/h 54 % 0 mm
22:15 -9.7 °C -13.7 °C 34198.6 hPa WNW 5.1 km/h 5.1 km/h 62 % 0 mm
22:17 -8.7 °C -13.8 °C 34256.2 hPa NE 15 km/h 15 km/h 54 % 0 mm
22:22 -8.7 °C -13.8 °C 34256.2 hPa ENE 15.3 km/h 15.3 km/h 55 % 0 mm
22:25 -9.7 °C -13.6 °C 34198.6 hPa Calm   2.6 km/h 63 % 0 mm
22:28 -8.8 °C -13.8 °C 34222.3 hPa NNE 15 km/h 15 km/h 55 % 0 mm
22:33 -8.8 °C -13.8 °C 34222.3 hPa NNE 19.2 km/h 19.2 km/h 55 % 0 mm
22:35 -9.8 °C -13.7 °C 34198.6 hPa Calm   2.6 km/h 63 % 0 mm
22:38 -8.8 °C -13.8 °C 34222.3 hPa East 9 km/h 9 km/h 55 % 0 mm
22:43 -8.8 °C -13.8 °C 34256.2 hPa ENE 11.9 km/h 11.9 km/h 55 % 0 mm
22:45 -9.9 °C -13.7 °C 34198.6 hPa West 2.6 km/h 5.1 km/h 63 % 0 mm
22:48 -8.8 °C -13.7 °C 34256.2 hPa NE 9 km/h 9 km/h 56 % 0 mm
22:54 -8.8 °C -13.7 °C 34256.2 hPa NNE 11.1 km/h 11.1 km/h 56 % 0 mm
22:55 -9.9 °C -13.8 °C 34198.6 hPa West 2.6 km/h 5.1 km/h 63 % 0 mm
22:59 -8.8 °C -13.8 °C 34256.2 hPa ENE 15 km/h 15 km/h 55 % 0 mm
23:04 -8.8 °C -13.8 °C 34256.2 hPa ENE 11.9 km/h 11.9 km/h 55 % 0 mm
23:05 -10 °C -13.8 °C 34198.6 hPa West 2.6 km/h 5.1 km/h 63 % 0 mm
23:09 -8.8 °C -13.8 °C 34256.2 hPa NE 15.3 km/h 15.3 km/h 55 % 0 mm
23:14 -8.8 °C -13.8 °C 34222.3 hPa NNE 15 km/h 15 km/h 55 % 0 mm
23:15 -10 °C -13.7 °C 34198.6 hPa West 2.6 km/h 5.1 km/h 64 % 0 mm
23:19 -8.9 °C -13.9 °C 34222.3 hPa NE 11.9 km/h 11.9 km/h 55 % 0 mm
23:24 -8.9 °C -13.9 °C 34222.3 hPa ENE 17.9 km/h 17.9 km/h 55 % 0 mm
23:25 -10.2 °C -13.9 °C 34164.7 hPa WSW 5.1 km/h 5.1 km/h 64 % 0 mm
23:29 -8.9 °C -13.9 °C 34222.3 hPa NNE 12.2 km/h 12.2 km/h 55 % 0 mm
23:34 -8.9 °C -13.9 °C 34222.3 hPa ESE 11.9 km/h 11.9 km/h 55 % 0 mm
23:35 -10.4 °C -14 °C 34198.6 hPa Calm   5.1 km/h 65 % 0 mm
23:39 -8.9 °C -13.9 °C 34222.3 hPa NNE 9.3 km/h 9.3 km/h 55 % 0 mm
23:44 -8.9 °C -13.9 °C 34222.3 hPa NNE 15 km/h 15 km/h 55 % 0 mm
23:45 -10.4 °C -13.9 °C 34198.6 hPa SW 5.1 km/h 5.1 km/h 66 % 0 mm
23:49 -8.9 °C -13.9 °C 34222.3 hPa NE 11.9 km/h 11.9 km/h 55 % 0 mm
23:54 -8.9 °C -13.9 °C 34222.3 hPa NNE 9.3 km/h 9.3 km/h 55 % 0 mm
23:55 -10.3 °C -13.8 °C 34198.6 hPa SW 5.1 km/h 7.7 km/h 66 % 0 mm
23:59 -8.9 °C -13.9 °C 34222.3 hPa NE 11.9 km/h 11.9 km/h 55 % 0 mm
Meteo Sesrovires
Elogis d' Weather Underground - 1.5 mb

Guio original per  Jim McMurry - jmcmurry@mwt.net Adaptat per a la plantilla per  Wim van der Kuil - Leuven-Template.eu

Trobareu la nostra informacio del temps tambe a:

Weather Underground

AWEKAS